createdAt,value
2018-08-18T00:04:27.547Z,10.03
2018-08-18T00:09:24.979Z,6.60
2018-08-18T00:14:22.496Z,7.30
2018-08-18T00:19:32.379Z,8.60
2018-08-18T00:24:29.823Z,6.67
2018-08-18T00:29:27.203Z,10.77
2018-08-18T00:34:24.774Z,5.60
2018-08-18T00:39:22.139Z,7.13
2018-08-18T00:44:19.520Z,11.33
2018-08-18T00:49:25.163Z,8.73
2018-08-18T00:54:22.686Z,10.00
2018-08-18T00:59:31.423Z,11.60
2018-08-18T01:04:28.813Z,6.33
2018-08-18T01:09:26.687Z,9.07
2018-08-18T01:14:24.145Z,5.40
2018-08-18T01:19:30.252Z,8.63
2018-08-18T01:24:27.898Z,13.67
2018-08-18T01:29:25.303Z,9.40
2018-08-18T01:34:22.679Z,9.63
2018-08-18T01:39:20.555Z,5.83
2018-08-18T01:44:22.011Z,12.00
2018-08-18T01:49:44.104Z,7.93
2018-08-18T01:54:42.070Z,8.13
2018-08-18T01:59:40.751Z,13.00
2018-08-18T02:04:38.143Z,6.97
2018-08-18T02:09:35.606Z,7.40
2018-08-18T02:14:33.043Z,13.67
2018-08-18T02:19:34.355Z,13.33
2018-08-18T02:24:31.794Z,14.87
2018-08-18T02:29:29.171Z,7.57
2018-08-18T02:34:26.561Z,15.60
2018-08-18T02:39:23.959Z,11.03
2018-08-18T02:44:21.434Z,8.60
2018-08-18T02:49:26.177Z,11.30
2018-08-18T02:54:25.890Z,9.43
2018-08-18T02:59:23.262Z,10.40
2018-08-18T03:04:20.694Z,11.90
2018-08-18T03:09:18.075Z,11.33
2018-08-18T03:14:15.450Z,7.43
2018-08-18T03:19:30.977Z,12.23
2018-08-18T03:24:28.499Z,12.10
2018-08-18T03:29:27.064Z,9.30
2018-08-18T03:34:25.072Z,7.50
2018-08-18T03:39:28.287Z,16.80
2018-08-18T03:44:25.917Z,10.07
2018-08-18T03:49:29.565Z,15.20
2018-08-18T03:54:27.007Z,20.63
2018-08-18T03:59:24.422Z,11.53
2018-08-18T04:04:22.992Z,23.30
2018-08-18T04:09:22.602Z,11.47
2018-08-18T04:14:21.780Z,16.90
2018-08-18T04:19:23.536Z,17.43
2018-08-18T04:24:21.135Z,21.43
2018-08-18T04:29:19.817Z,19.57
2018-08-18T04:34:17.227Z,21.80
2018-08-18T04:39:15.163Z,21.07
2018-08-18T04:44:12.636Z,18.57
2018-08-18T04:49:10.566Z,19.10
2018-08-18T04:54:07.959Z,20.40
2018-08-18T04:59:05.354Z,24.00
2018-08-18T05:04:06.570Z,19.43
2018-08-18T05:09:07.282Z,22.40
2018-08-18T05:14:04.739Z,18.93
2018-08-18T05:19:03.182Z,25.33
2018-08-18T05:24:17.727Z,19.37
2018-08-18T05:29:15.142Z,22.73
2018-08-18T05:34:12.783Z,21.03
2018-08-18T05:39:10.213Z,22.07
2018-08-18T05:44:07.635Z,23.77
2018-08-18T05:49:14.151Z,39.73
2018-08-18T05:54:13.427Z,17.80
2018-08-18T05:59:10.820Z,20.20
2018-08-18T06:04:11.387Z,16.77
2018-08-18T06:09:12.431Z,14.97
2018-08-18T06:14:10.779Z,18.37
2018-08-18T06:19:09.939Z,18.77
2018-08-18T06:24:07.481Z,21.03
2018-08-18T06:29:04.979Z,20.33
2018-08-18T06:34:02.367Z,20.37
2018-08-18T06:38:59.771Z,25.97
2018-08-18T06:43:57.180Z,21.40
2018-08-18T06:48:54.671Z,23.27
2018-08-18T06:53:52.066Z,16.43
2018-08-18T06:58:50.207Z,17.17
2018-08-18T07:03:47.611Z,21.20
2018-08-18T07:08:50.674Z,21.13
2018-08-18T07:13:48.749Z,20.83
2018-08-18T07:18:46.140Z,22.70
2018-08-18T07:23:43.530Z,26.13
2018-08-18T07:28:40.956Z,16.80
2018-08-18T07:33:38.355Z,15.33
2018-08-18T07:38:35.768Z,16.23
2018-08-18T07:43:34.494Z,15.57
2018-08-18T07:48:31.963Z,17.20
2018-08-18T07:53:29.458Z,20.53
2018-08-18T07:58:27.823Z,18.83
2018-08-18T08:03:26.891Z,14.67
2018-08-18T08:08:29.576Z,16.30
2018-08-18T08:13:28.786Z,16.33
2018-08-18T08:18:26.618Z,14.20
2018-08-18T08:23:25.052Z,15.97
2018-08-18T08:28:24.024Z,21.97
2018-08-18T08:33:33.035Z,13.67
2018-08-18T08:38:42.479Z,12.90
2018-08-18T08:43:39.991Z,14.77
2018-08-18T08:48:37.442Z,12.70
2018-08-18T08:53:35.135Z,14.80
2018-08-18T08:58:35.670Z,12.07
2018-08-18T09:03:33.354Z,14.30
2018-08-18T09:08:31.233Z,13.97
2018-08-18T09:13:28.911Z,13.57
2018-08-18T09:18:26.752Z,15.30
2018-08-18T09:23:24.300Z,9.50
2018-08-18T09:28:21.899Z,9.50
2018-08-18T09:33:22.384Z,10.20
2018-08-18T09:38:20.437Z,16.97
2018-08-18T09:43:24.596Z,10.80
2018-08-18T09:48:27.071Z,6.77
2018-08-18T09:53:32.544Z,6.67
2018-08-18T09:58:30.597Z,9.60
2018-08-18T10:03:29.284Z,9.73
2018-08-18T10:08:27.399Z,7.87
2018-08-18T10:13:29.521Z,8.30
2018-08-18T10:18:34.967Z,8.27
2018-08-18T10:23:35.434Z,5.70
2018-08-18T10:28:33.226Z,8.43
2018-08-18T10:33:30.971Z,17.43
2018-08-18T10:38:30.462Z,7.33
2018-08-18T10:43:29.908Z,7.70
2018-08-18T10:48:27.483Z,7.43
2018-08-18T10:53:25.911Z,8.50
2018-08-18T10:58:34.848Z,8.13
2018-08-18T11:03:32.208Z,12.60
2018-08-18T11:08:29.600Z,5.00
2018-08-18T11:13:26.983Z,11.60
2018-08-18T11:18:24.428Z,7.93
2018-08-18T11:23:21.862Z,6.43
2018-08-18T11:28:19.723Z,6.47
2018-08-18T11:33:34.253Z,7.47
2018-08-18T11:38:32.243Z,13.87
2018-08-18T11:43:33.047Z,4.30
2018-08-18T11:48:30.473Z,6.27
2018-08-18T11:53:28.418Z,5.57
2018-08-18T11:58:25.803Z,7.60
2018-08-18T12:03:25.965Z,5.20
2018-08-18T12:08:26.449Z,5.87
2018-08-18T12:13:30.182Z,18.23
2018-08-18T12:18:29.140Z,7.40
2018-08-18T12:23:26.910Z,6.77
2018-08-18T12:28:29.675Z,3.67
2018-08-18T12:33:27.473Z,8.53
2018-08-18T12:38:24.887Z,5.20
2018-08-18T12:43:28.712Z,3.47
2018-08-18T12:48:26.108Z,7.40
2018-08-18T12:53:23.519Z,6.70
2018-08-18T12:58:21.044Z,15.17
2018-08-18T13:03:18.779Z,5.77
2018-08-18T13:08:16.198Z,2.97
2018-08-18T13:13:13.607Z,4.07
2018-08-18T13:18:11.076Z,5.80
2018-08-18T13:23:08.519Z,5.13
2018-08-18T13:28:06.210Z,5.07
2018-08-18T13:33:03.833Z,5.63
2018-08-18T13:38:01.350Z,4.77
2018-08-18T13:42:58.811Z,4.40
2018-08-18T13:48:01.732Z,6.33
2018-08-18T13:53:00.797Z,1.70
2018-08-18T13:57:58.394Z,2.60
2018-08-18T14:02:56.416Z,5.13
2018-08-18T14:07:57.018Z,4.37
2018-08-18T14:12:55.516Z,5.53
2018-08-18T14:17:59.655Z,5.30
2018-08-18T14:23:01.635Z,3.63
2018-08-18T14:28:00.036Z,2.40
2018-08-18T14:32:57.492Z,18.17
2018-08-18T14:37:54.936Z,3.97
2018-08-18T14:42:52.407Z,2.50
2018-08-18T14:47:50.235Z,5.33
2018-08-18T14:52:47.686Z,3.00
2018-08-18T14:57:50.690Z,3.40
2018-08-18T15:02:48.215Z,4.00
2018-08-18T15:07:48.748Z,10.07
2018-08-18T15:12:46.218Z,4.50
2018-08-18T15:17:43.717Z,3.00
2018-08-18T15:22:41.115Z,8.60
2018-08-18T15:27:38.522Z,5.00
2018-08-18T15:32:35.937Z,5.33
2018-08-18T15:37:33.391Z,3.43
2018-08-18T15:42:30.836Z,10.60
2018-08-18T15:47:29.536Z,11.03
2018-08-18T15:52:30.889Z,2.97
2018-08-18T15:57:28.396Z,5.67
2018-08-18T16:02:26.370Z,3.90
2018-08-18T16:07:23.815Z,5.40
2018-08-18T16:12:21.219Z,5.70
2018-08-18T16:17:19.513Z,6.10
2018-08-18T16:22:16.915Z,5.67
2018-08-18T16:27:14.331Z,8.50
2018-08-18T16:32:19.246Z,5.30
2018-08-18T16:37:16.668Z,7.33
2018-08-18T16:42:14.530Z,5.90
2018-08-18T16:47:11.891Z,5.53
2018-08-18T16:52:09.516Z,7.80
2018-08-18T16:57:07.090Z,12.33
2018-08-18T17:02:05.137Z,5.03
2018-08-18T17:07:05.808Z,4.43
2018-08-18T17:12:17.667Z,6.37
2018-08-18T17:17:15.075Z,3.37
2018-08-18T17:22:13.692Z,3.20
2018-08-18T17:27:11.082Z,2.07
2018-08-18T17:32:08.963Z,5.97
2018-08-18T17:37:06.701Z,9.97
2018-08-18T17:42:04.176Z,4.27
2018-08-18T17:47:06.139Z,2.17
2018-08-18T17:52:06.758Z,3.83
2018-08-18T17:57:04.975Z,11.10
2018-08-18T18:02:14.915Z,4.90
2018-08-18T18:07:12.603Z,3.33
2018-08-18T18:12:30.767Z,7.10
2018-08-18T18:17:28.623Z,6.53
2018-08-18T18:22:33.436Z,14.03
2018-08-18T18:27:30.920Z,10.60
2018-08-18T18:32:28.298Z,8.87
2018-08-18T18:37:25.763Z,8.07
2018-08-18T18:42:23.778Z,3.80
2018-08-18T18:47:21.191Z,4.17
2018-08-18T18:52:18.651Z,5.93
2018-08-18T18:57:16.326Z,10.00
2018-08-18T19:02:13.758Z,2.73
2018-08-18T19:07:11.210Z,3.13
2018-08-18T19:12:09.158Z,3.87
2018-08-18T19:17:06.540Z,6.30
2018-08-18T19:22:07.693Z,10.33
2018-08-18T19:27:05.711Z,5.63
2018-08-18T19:32:03.130Z,9.53
2018-08-18T19:37:03.301Z,13.33
2018-08-18T19:42:07.493Z,6.30
2018-08-18T19:47:05.944Z,9.13
2018-08-18T19:52:07.854Z,5.23
2018-08-18T19:57:05.254Z,10.30
2018-08-18T20:02:02.774Z,12.77
2018-08-18T20:07:00.148Z,5.07
2018-08-18T20:11:57.785Z,5.37
2018-08-18T20:16:55.730Z,5.50
2018-08-18T20:21:53.202Z,7.63
2018-08-18T20:26:50.590Z,2.60
2018-08-18T20:31:59.775Z,3.20
2018-08-18T20:36:57.199Z,9.57
2018-08-18T20:42:02.976Z,6.27
2018-08-18T20:47:01.060Z,4.20
2018-08-18T20:51:58.467Z,8.43
2018-08-18T20:56:55.894Z,10.20
2018-08-18T21:01:53.281Z,5.40
2018-08-18T21:06:50.658Z,4.33
2018-08-18T21:11:48.035Z,12.10
2018-08-18T21:16:46.071Z,6.80
2018-08-18T21:21:43.482Z,5.70
2018-08-18T21:26:40.846Z,8.17
2018-08-18T21:31:38.579Z,6.77
2018-08-18T21:36:36.283Z,6.87
2018-08-18T21:41:35.715Z,8.30
2018-08-18T21:46:33.104Z,9.67
2018-08-18T21:51:30.537Z,12.73
2018-08-18T21:56:34.539Z,5.73
2018-08-18T22:01:32.534Z,5.90
2018-08-18T22:06:29.964Z,6.10
2018-08-18T22:11:27.446Z,10.73
2018-08-18T22:16:24.922Z,10.23
2018-08-18T22:21:29.587Z,8.17
2018-08-18T22:26:27.219Z,11.53
2018-08-18T22:31:24.817Z,8.03
2018-08-18T22:36:22.507Z,14.87
2018-08-18T22:41:19.938Z,8.40
2018-08-18T22:46:17.643Z,12.37
2018-08-18T22:51:15.043Z,7.80
2018-08-18T22:56:12.470Z,8.57
2018-08-18T23:01:09.842Z,9.57
2018-08-18T23:06:07.273Z,7.40
2018-08-18T23:11:04.708Z,6.87
2018-08-18T23:16:02.121Z,12.43
2018-08-18T23:20:59.489Z,7.47
2018-08-18T23:25:56.878Z,7.17
2018-08-18T23:30:54.271Z,10.23
2018-08-18T23:35:51.666Z,11.40
2018-08-18T23:40:49.814Z,16.43
2018-08-18T23:45:48.185Z,13.63
2018-08-18T23:50:45.635Z,27.53
2018-08-18T23:55:49.428Z,7.40
